createdAt,value
2018-09-30T00:00:56.106Z,52.60
2018-09-30T00:03:24.342Z,52.40
2018-09-30T00:05:52.624Z,52.80
2018-09-30T00:08:21.157Z,53.90
2018-09-30T00:10:49.378Z,53.60
2018-09-30T00:13:17.965Z,54.20
2018-09-30T00:15:46.457Z,53.10
2018-09-30T00:23:12.646Z,53.90
2018-09-30T00:25:46.564Z,54.20
2018-09-30T00:28:14.794Z,53.70
2018-09-30T00:30:43.056Z,54.20
2018-09-30T00:33:11.319Z,55.00
2018-09-30T00:35:39.567Z,54.60
2018-09-30T00:38:08.105Z,55.10
2018-09-30T00:40:36.730Z,55.60
2018-09-30T00:43:05.367Z,56.10
2018-09-30T00:45:33.736Z,57.10
2018-09-30T00:48:02.449Z,56.20
2018-09-30T00:50:30.885Z,56.50
2018-09-30T00:57:56.364Z,55.90
2018-09-30T01:00:24.618Z,56.10
2018-09-30T01:02:52.845Z,56.00
2018-09-30T01:05:21.672Z,56.40
2018-09-30T01:10:17.998Z,55.50
2018-09-30T01:12:46.817Z,56.30
2018-09-30T01:15:15.122Z,56.40
2018-09-30T01:17:43.663Z,56.70
2018-09-30T01:20:12.720Z,56.30
2018-09-30T01:22:40.996Z,56.50
2018-09-30T01:25:09.536Z,56.90
2018-09-30T01:27:37.993Z,57.40
2018-09-30T01:30:07.210Z,56.80
2018-09-30T01:32:35.649Z,57.30
2018-09-30T01:35:05.495Z,57.70
2018-09-30T01:40:05.017Z,56.90
2018-09-30T01:42:33.739Z,57.00
2018-09-30T01:45:02.045Z,57.60
2018-09-30T01:47:30.907Z,57.70
2018-09-30T01:50:00.603Z,57.60
2018-09-30T01:52:48.493Z,58.20
2018-09-30T01:55:17.759Z,57.90
2018-09-30T01:57:46.021Z,57.50
2018-09-30T02:00:14.394Z,57.90
2018-09-30T02:02:44.458Z,57.80
2018-09-30T02:05:14.804Z,57.80
2018-09-30T02:07:43.632Z,58.60
2018-09-30T02:10:11.961Z,59.10
2018-09-30T02:12:40.411Z,58.70
2018-09-30T02:17:39.952Z,58.30
2018-09-30T02:20:09.077Z,58.60
2018-09-30T02:22:37.491Z,58.90
2018-09-30T02:25:06.247Z,58.40
2018-09-30T02:27:35.273Z,59.10
2018-09-30T02:30:04.193Z,59.40
2018-09-30T02:32:32.545Z,59.70
2018-09-30T02:35:01.197Z,60.20
2018-09-30T02:37:29.667Z,60.90
2018-09-30T02:39:58.601Z,60.70
2018-09-30T02:42:27.607Z,61.10
2018-09-30T02:44:56.656Z,61.20
2018-09-30T02:47:25.027Z,61.40
2018-09-30T02:49:53.319Z,61.10
2018-09-30T02:52:21.648Z,61.10
2018-09-30T02:54:50.254Z,61.10
2018-09-30T02:57:18.825Z,61.10
2018-09-30T02:59:47.374Z,61.60
2018-09-30T03:02:15.725Z,62.20
2018-09-30T03:04:44.060Z,61.90
2018-09-30T03:07:18.008Z,62.30
2018-09-30T03:09:46.349Z,62.50
2018-09-30T03:12:15.737Z,61.60
2018-09-30T03:14:44.159Z,61.70
2018-09-30T03:17:14.571Z,61.60
2018-09-30T03:19:42.959Z,60.50
2018-09-30T03:22:11.243Z,61.10
2018-09-30T03:24:40.220Z,62.20
2018-09-30T03:27:08.522Z,62.80
2018-09-30T03:29:37.168Z,62.30
2018-09-30T03:32:05.448Z,62.40
2018-09-30T03:34:33.828Z,62.10
2018-09-30T03:37:02.128Z,62.70
2018-09-30T03:39:30.503Z,62.20
2018-09-30T03:41:58.679Z,62.90
2018-09-30T03:44:26.927Z,62.20
2018-09-30T03:46:56.025Z,62.80
2018-09-30T03:49:24.346Z,63.00
2018-09-30T03:51:52.624Z,63.20
2018-09-30T03:54:21.008Z,63.90
2018-09-30T03:56:50.266Z,64.50
2018-09-30T04:01:46.931Z,63.90
2018-09-30T04:04:15.868Z,64.70
2018-09-30T04:06:44.204Z,65.20
2018-09-30T04:09:12.713Z,65.70
2018-09-30T04:11:40.948Z,65.50
2018-09-30T04:14:09.498Z,66.10
2018-09-30T04:16:37.740Z,65.50
2018-09-30T04:19:06.095Z,65.60
2018-09-30T04:24:07.462Z,64.10
2018-09-30T04:26:36.587Z,64.00
2018-09-30T04:31:33.608Z,63.70
2018-09-30T04:34:02.729Z,64.90
2018-09-30T04:36:32.001Z,64.60
2018-09-30T04:39:00.524Z,65.30
2018-09-30T04:41:29.269Z,65.90
2018-09-30T04:43:57.963Z,66.50
2018-09-30T04:46:26.204Z,65.50
2018-09-30T04:48:54.821Z,66.50
2018-09-30T04:51:23.360Z,66.40
2018-09-30T04:53:51.605Z,66.10
2018-09-30T04:56:19.908Z,65.00
2018-09-30T04:58:48.429Z,65.10
2018-09-30T05:01:16.708Z,65.10
2018-09-30T05:03:45.045Z,65.30
2018-09-30T05:06:13.329Z,65.00
2018-09-30T05:08:41.679Z,65.50
2018-09-30T05:11:10.527Z,65.20
2018-09-30T05:13:38.835Z,64.50
2018-09-30T05:16:07.732Z,65.10
2018-09-30T05:18:36.011Z,65.10
2018-09-30T05:21:04.844Z,65.70
2018-09-30T05:23:33.468Z,64.70
2018-09-30T05:26:02.194Z,65.20
2018-09-30T05:28:30.984Z,65.40
2018-09-30T05:31:00.488Z,65.00
2018-09-30T05:33:28.844Z,64.70
2018-09-30T05:35:57.726Z,64.40
2018-09-30T05:38:27.051Z,64.80
2018-09-30T05:40:55.638Z,65.60
2018-09-30T05:43:23.897Z,65.70
2018-09-30T05:45:52.508Z,66.40
2018-09-30T05:48:20.869Z,66.20
2018-09-30T05:50:49.168Z,65.40
2018-09-30T05:53:17.404Z,65.10
2018-09-30T05:55:46.436Z,65.00
2018-09-30T05:58:14.693Z,64.90
2018-09-30T06:00:42.952Z,61.50
2018-09-30T06:03:11.443Z,62.10
2018-09-30T06:05:39.757Z,61.90
2018-09-30T06:08:08.044Z,62.50
2018-09-30T06:10:36.394Z,62.20
2018-09-30T06:13:04.928Z,62.70
2018-09-30T06:15:34.104Z,62.60
2018-09-30T06:18:03.200Z,63.40
2018-09-30T06:23:07.152Z,62.10
2018-09-30T06:25:36.453Z,62.70
2018-09-30T06:28:05.195Z,61.60
2018-09-30T06:30:33.845Z,61.10
2018-09-30T06:33:02.941Z,61.50
2018-09-30T06:35:31.642Z,61.80
2018-09-30T06:37:59.972Z,63.10
2018-09-30T06:40:28.700Z,61.40
2018-09-30T06:45:26.200Z,59.80
2018-09-30T06:47:54.511Z,59.30
2018-09-30T06:50:23.334Z,58.40
2018-09-30T06:52:52.061Z,59.10
2018-09-30T06:55:21.044Z,57.20
2018-09-30T06:57:49.757Z,57.50
2018-09-30T07:00:18.180Z,55.60
2018-09-30T07:02:46.989Z,55.90
2018-09-30T07:05:15.421Z,56.10
2018-09-30T07:07:44.031Z,56.40
2018-09-30T07:10:13.065Z,55.50
2018-09-30T07:12:41.441Z,54.00
2018-09-30T07:15:10.267Z,54.50
2018-09-30T07:17:39.803Z,54.20
2018-09-30T07:20:08.382Z,54.20
2018-09-30T07:22:36.772Z,54.40
2018-09-30T07:25:05.112Z,52.90
2018-09-30T07:27:33.527Z,53.40
2018-09-30T07:30:03.665Z,53.20
2018-09-30T07:32:32.248Z,53.60
2018-09-30T07:35:00.642Z,53.50
2018-09-30T07:37:29.026Z,52.10
2018-09-30T07:39:57.567Z,51.80
2018-09-30T07:42:25.813Z,50.10
2018-09-30T07:44:54.180Z,50.60
2018-09-30T07:47:22.519Z,50.00
2018-09-30T07:49:51.592Z,49.70
2018-09-30T07:52:20.014Z,50.50
2018-09-30T07:54:50.994Z,50.00
2018-09-30T07:57:19.368Z,49.50
2018-09-30T07:59:47.727Z,49.60
2018-09-30T08:02:16.333Z,49.60
2018-09-30T08:04:44.712Z,49.70
2018-09-30T08:07:13.117Z,48.80
2018-09-30T08:09:41.593Z,48.50
2018-09-30T08:12:10.301Z,48.80
2018-09-30T08:14:38.723Z,50.00
2018-09-30T08:17:07.258Z,46.90
2018-09-30T08:19:36.244Z,47.30
2018-09-30T08:22:04.770Z,47.40
2018-09-30T08:24:34.239Z,46.90
2018-09-30T08:29:31.243Z,46.90
2018-09-30T08:32:06.555Z,45.70
2018-09-30T08:34:34.925Z,47.60
2018-09-30T08:37:03.860Z,46.50
2018-09-30T08:39:33.541Z,46.10
2018-09-30T08:42:02.114Z,46.50
2018-09-30T08:44:33.120Z,46.20
2018-09-30T08:49:30.168Z,45.40
2018-09-30T08:51:58.480Z,46.10
2018-09-30T08:54:27.491Z,46.20
2018-09-30T08:56:56.137Z,45.20
2018-09-30T08:59:24.547Z,43.70
2018-09-30T09:01:54.609Z,44.30
2018-09-30T09:04:25.320Z,44.30
2018-09-30T09:06:53.960Z,44.60
2018-09-30T09:09:22.268Z,44.50
2018-09-30T09:11:51.325Z,43.90
2018-09-30T09:14:19.779Z,43.90
2018-09-30T09:16:48.933Z,43.80
2018-09-30T09:19:18.761Z,43.40
2018-09-30T09:21:47.586Z,43.10
2018-09-30T09:24:19.428Z,42.10
2018-09-30T09:26:50.197Z,42.50
2018-09-30T09:29:18.960Z,42.20
2018-09-30T09:31:47.939Z,43.00
2018-09-30T09:34:16.622Z,42.00
2018-09-30T09:36:44.920Z,41.70
2018-09-30T09:39:14.034Z,42.20
2018-09-30T09:41:45.571Z,41.50
2018-09-30T09:44:15.387Z,41.00
2018-09-30T09:46:44.335Z,40.60
2018-09-30T09:49:14.489Z,41.20
2018-09-30T09:51:42.814Z,40.70
2018-09-30T09:54:11.244Z,39.60
2018-09-30T09:56:40.533Z,40.20
2018-09-30T09:59:09.355Z,40.00
2018-09-30T10:01:39.169Z,39.80
2018-09-30T10:04:08.371Z,39.40
2018-09-30T10:06:36.644Z,38.60
2018-09-30T10:09:06.280Z,38.80
2018-09-30T10:11:34.535Z,37.20
2018-09-30T10:14:03.179Z,37.30
2018-09-30T10:16:32.606Z,37.10
2018-09-30T10:19:00.832Z,36.70
2018-09-30T10:21:29.406Z,36.10
2018-09-30T10:23:57.795Z,35.40
2018-09-30T10:26:25.989Z,35.80
2018-09-30T10:28:54.358Z,36.40
2018-09-30T10:31:22.685Z,35.30
2018-09-30T10:33:50.950Z,34.70
2018-09-30T10:38:47.349Z,34.40
2018-09-30T10:41:15.632Z,34.40
2018-09-30T10:43:44.265Z,34.20
2018-09-30T10:46:13.023Z,34.90
2018-09-30T10:48:41.529Z,34.90
2018-09-30T10:51:10.093Z,33.60
2018-09-30T10:53:38.494Z,34.00
2018-09-30T10:56:06.787Z,33.30
2018-09-30T10:58:35.408Z,33.30
2018-09-30T11:01:03.706Z,33.20
2018-09-30T11:03:33.370Z,33.20
2018-09-30T11:06:02.817Z,31.40
2018-09-30T11:08:31.238Z,32.00
2018-09-30T11:10:59.713Z,31.80
2018-09-30T11:13:28.077Z,32.30
2018-09-30T11:15:56.784Z,32.30
2018-09-30T11:18:26.403Z,31.50
2018-09-30T11:20:55.115Z,32.00
2018-09-30T11:23:24.168Z,32.20
2018-09-30T11:25:52.607Z,32.00
2018-09-30T11:28:21.494Z,31.60
2018-09-30T11:30:49.939Z,30.60
2018-09-30T11:33:18.858Z,31.00
2018-09-30T11:35:47.784Z,31.60
2018-09-30T11:38:16.235Z,30.90
2018-09-30T11:40:44.670Z,30.60
2018-09-30T11:43:13.231Z,30.30
2018-09-30T11:45:42.704Z,29.90
2018-09-30T11:48:10.950Z,30.00
2018-09-30T11:50:39.696Z,29.90
2018-09-30T11:53:08.180Z,29.70
2018-09-30T11:55:36.802Z,29.90
2018-09-30T11:58:05.739Z,30.10
2018-09-30T12:00:34.822Z,29.70
2018-09-30T12:03:03.434Z,30.00
2018-09-30T12:05:31.852Z,30.50
2018-09-30T12:08:00.524Z,30.30
2018-09-30T12:10:28.850Z,30.90
2018-09-30T12:12:57.097Z,31.10
2018-09-30T12:15:25.637Z,30.70
2018-09-30T12:17:53.888Z,31.20
2018-09-30T12:20:22.285Z,29.70
2018-09-30T12:22:52.379Z,30.00
2018-09-30T12:25:20.658Z,30.00
2018-09-30T12:27:49.453Z,30.40
2018-09-30T12:30:18.469Z,30.40
2018-09-30T12:35:28.821Z,29.60
2018-09-30T12:37:57.689Z,29.90
2018-09-30T12:40:26.177Z,29.10
2018-09-30T12:42:54.829Z,29.60
2018-09-30T12:45:24.837Z,28.50
2018-09-30T12:47:54.908Z,29.10
2018-09-30T12:50:23.667Z,29.50
2018-09-30T12:52:54.081Z,29.00
2018-09-30T12:57:51.623Z,29.00
2018-09-30T13:00:19.883Z,29.50
2018-09-30T13:02:48.267Z,28.70
2018-09-30T13:05:16.775Z,28.90
2018-09-30T13:07:44.993Z,28.70
2018-09-30T13:10:13.454Z,29.10
2018-09-30T13:12:41.705Z,28.30
2018-09-30T13:15:10.524Z,28.30
2018-09-30T13:17:38.900Z,27.60
2018-09-30T13:20:07.943Z,28.00
2018-09-30T13:22:36.342Z,26.20
2018-09-30T13:25:04.874Z,24.90
2018-09-30T13:27:33.257Z,24.40
2018-09-30T13:30:01.511Z,21.90
2018-09-30T13:32:30.152Z,22.30
2018-09-30T13:34:58.425Z,20.70
2018-09-30T13:37:26.677Z,21.10
2018-09-30T13:39:55.044Z,19.90
2018-09-30T13:42:23.294Z,17.00
2018-09-30T13:44:51.633Z,17.40
2018-09-30T13:47:19.845Z,18.40
2018-09-30T13:49:48.086Z,17.90
2018-09-30T13:52:16.298Z,18.20
2018-09-30T13:54:44.537Z,18.40
2018-09-30T13:57:12.834Z,18.80
2018-09-30T13:59:41.121Z,18.90
2018-09-30T14:02:10.585Z,18.00
2018-09-30T14:09:36.323Z,15.10
2018-09-30T14:12:05.248Z,15.60
2018-09-30T14:17:08.738Z,14.80
2018-09-30T14:19:37.016Z,14.50
2018-09-30T14:22:06.649Z,13.70
2018-09-30T14:24:35.283Z,14.10
2018-09-30T14:27:04.029Z,14.90
2018-09-30T14:29:32.337Z,14.40
2018-09-30T14:32:01.055Z,14.70
2018-09-30T14:34:29.537Z,14.40
2018-09-30T14:36:57.946Z,14.20
2018-09-30T14:39:26.497Z,14.60
2018-09-30T14:41:55.728Z,15.00
2018-09-30T14:44:24.066Z,14.90
2018-09-30T14:46:52.935Z,14.30
2018-09-30T14:49:21.593Z,14.60
2018-09-30T14:51:49.964Z,16.50
2018-09-30T14:54:18.915Z,16.80
2018-09-30T14:56:47.280Z,17.30
2018-09-30T14:59:16.605Z,17.10
2018-09-30T15:01:45.572Z,17.90
2018-09-30T15:04:14.402Z,18.70
2018-09-30T15:06:42.915Z,19.10
2018-09-30T15:09:11.912Z,19.60
2018-09-30T15:11:40.593Z,20.30
2018-09-30T15:14:09.070Z,20.10
2018-09-30T15:16:37.993Z,19.10
2018-09-30T15:19:07.807Z,20.00
2018-09-30T15:21:36.777Z,17.80
2018-09-30T15:24:06.058Z,18.50
2018-09-30T15:26:35.264Z,19.30
2018-09-30T15:29:04.261Z,19.80
2018-09-30T15:31:33.066Z,19.70
2018-09-30T15:34:01.339Z,19.20
2018-09-30T15:38:58.769Z,19.80
2018-09-30T15:41:27.491Z,19.90
2018-09-30T15:43:56.169Z,21.10
2018-09-30T15:46:25.105Z,20.50
2018-09-30T15:48:53.396Z,19.90
2018-09-30T15:51:22.026Z,20.30
2018-09-30T15:56:18.589Z,20.90
2018-09-30T15:58:46.969Z,21.60
2018-09-30T16:01:15.631Z,22.10
2018-09-30T16:03:45.566Z,23.10
2018-09-30T16:06:14.454Z,24.10
2018-09-30T16:08:43.532Z,24.60
2018-09-30T16:13:40.960Z,26.10
2018-09-30T16:16:09.744Z,28.10
2018-09-30T16:18:38.229Z,29.00
2018-09-30T16:21:06.560Z,29.50
2018-09-30T16:23:35.085Z,29.90
2018-09-30T16:26:03.672Z,30.50
2018-09-30T16:28:31.895Z,31.50
2018-09-30T16:31:00.324Z,32.10
2018-09-30T16:33:28.749Z,32.70
2018-09-30T16:35:57.513Z,33.90
2018-09-30T16:38:26.255Z,34.30
2018-09-30T16:40:54.595Z,34.20
2018-09-30T16:43:23.618Z,34.70
2018-09-30T16:45:52.665Z,35.10
2018-09-30T16:48:21.031Z,35.90
2018-09-30T16:50:49.314Z,36.00
2018-09-30T16:53:17.566Z,36.50
2018-09-30T16:55:45.862Z,36.10
2018-09-30T16:58:14.605Z,36.00
2018-09-30T17:00:43.921Z,36.00
2018-09-30T17:03:12.929Z,37.30
2018-09-30T17:05:41.362Z,37.30
2018-09-30T17:08:09.730Z,38.40
2018-09-30T17:10:38.087Z,38.70
2018-09-30T17:13:06.844Z,38.50
2018-09-30T17:15:35.531Z,39.10
2018-09-30T17:18:03.885Z,38.70
2018-09-30T17:20:33.121Z,38.90
2018-09-30T17:23:01.557Z,38.60
2018-09-30T17:25:29.855Z,40.70
2018-09-30T17:27:59.107Z,40.20
2018-09-30T17:30:27.694Z,40.10
2018-09-30T17:32:56.240Z,39.50
2018-09-30T17:35:25.031Z,39.90
2018-09-30T17:37:53.343Z,39.90
2018-09-30T17:40:21.725Z,39.80
2018-09-30T17:42:50.290Z,42.10
2018-09-30T17:45:18.585Z,42.20
2018-09-30T17:47:46.961Z,42.00
2018-09-30T17:50:15.330Z,41.40
2018-09-30T17:52:43.954Z,43.10
2018-09-30T17:55:12.430Z,43.70
2018-09-30T17:57:40.745Z,42.80
2018-09-30T18:00:09.196Z,43.00
2018-09-30T18:02:38.358Z,43.70
2018-09-30T18:05:07.603Z,44.30
2018-09-30T18:07:36.677Z,44.30
2018-09-30T18:10:06.229Z,44.80
2018-09-30T18:12:34.460Z,45.40
2018-09-30T18:15:03.303Z,45.30
2018-09-30T18:17:31.940Z,45.90
2018-09-30T18:20:00.296Z,46.30
2018-09-30T18:22:28.648Z,45.40
2018-09-30T18:24:57.384Z,45.40
2018-09-30T18:27:26.586Z,44.80
2018-09-30T18:29:54.936Z,45.00
2018-09-30T18:32:23.269Z,45.10
2018-09-30T18:34:53.297Z,44.40
2018-09-30T18:37:21.615Z,44.50
2018-09-30T18:39:49.927Z,45.10
2018-09-30T18:42:18.216Z,45.10
2018-09-30T18:44:46.544Z,45.00
2018-09-30T18:47:15.276Z,45.10
2018-09-30T18:49:43.849Z,45.50
2018-09-30T18:52:12.578Z,46.90
2018-09-30T18:54:41.471Z,46.90
2018-09-30T18:57:09.871Z,46.90
2018-09-30T18:59:38.612Z,47.00
2018-09-30T19:02:07.944Z,47.50
2018-09-30T19:04:36.285Z,47.20
2018-09-30T19:07:04.639Z,47.90
2018-09-30T19:09:33.239Z,48.50
2018-09-30T19:12:01.565Z,48.40
2018-09-30T19:14:29.853Z,48.40
2018-09-30T19:16:58.381Z,48.60
2018-09-30T19:19:27.063Z,48.80
2018-09-30T19:21:55.445Z,49.30
2018-09-30T19:24:23.838Z,49.40
2018-09-30T19:26:52.518Z,50.00
2018-09-30T19:29:21.196Z,50.00
2018-09-30T19:31:50.586Z,49.20
2018-09-30T19:34:19.438Z,49.70
2018-09-30T19:39:24.249Z,49.40
2018-09-30T19:41:52.661Z,49.80
2018-09-30T19:44:21.670Z,50.00
2018-09-30T19:46:50.262Z,50.30
2018-09-30T19:49:19.564Z,50.40
2018-09-30T19:51:47.793Z,50.30
2018-09-30T19:54:16.760Z,50.30
2018-09-30T19:56:45.213Z,50.40
2018-09-30T19:59:13.554Z,50.50
2018-09-30T20:01:42.233Z,50.80
2018-09-30T20:04:13.762Z,51.30
2018-09-30T20:06:42.136Z,51.60
2018-09-30T20:09:10.480Z,52.20
2018-09-30T20:11:39.315Z,52.70
2018-09-30T20:14:07.653Z,52.10
2018-09-30T20:16:36.816Z,51.80
2018-09-30T20:19:06.047Z,52.20
2018-09-30T20:21:34.573Z,53.50
2018-09-30T20:24:02.778Z,52.80
2018-09-30T20:26:31.870Z,52.80
2018-09-30T20:29:00.232Z,52.80
2018-09-30T20:31:28.512Z,53.10
2018-09-30T20:33:57.099Z,54.00
2018-09-30T20:36:25.464Z,54.20
2018-09-30T20:38:54.040Z,54.50
2018-09-30T20:41:22.373Z,54.70
2018-09-30T20:43:50.561Z,54.60
2018-09-30T20:46:19.664Z,54.40
2018-09-30T20:48:48.951Z,54.80
2018-09-30T20:51:17.544Z,54.90
2018-09-30T20:53:46.025Z,54.90
2018-09-30T20:56:14.580Z,54.80
2018-09-30T21:01:11.632Z,55.50
2018-09-30T21:03:40.544Z,55.40
2018-09-30T21:06:33.635Z,56.00
2018-09-30T21:09:01.967Z,56.30
2018-09-30T21:11:30.827Z,56.40
2018-09-30T21:16:28.125Z,56.30
2018-09-30T21:18:57.437Z,56.20
2018-09-30T21:21:26.065Z,56.50
2018-09-30T21:23:54.732Z,56.70
2018-09-30T21:26:23.684Z,56.90
2018-09-30T21:28:52.229Z,57.30
2018-09-30T21:31:21.285Z,57.20
2018-09-30T21:33:49.647Z,57.70
2018-09-30T21:36:18.310Z,57.50
2018-09-30T21:38:47.142Z,57.90
2018-09-30T21:43:44.929Z,57.90
2018-09-30T21:46:13.237Z,58.10
2018-09-30T21:48:41.645Z,58.50
2018-09-30T21:53:39.095Z,57.80
2018-09-30T21:56:07.526Z,58.40
2018-09-30T21:58:36.528Z,58.50
2018-09-30T22:01:05.599Z,58.30
2018-09-30T22:03:33.836Z,58.60
2018-09-30T22:06:02.549Z,59.00
2018-09-30T22:08:32.033Z,58.20
2018-09-30T22:13:30.208Z,58.60
2018-09-30T22:15:58.630Z,58.50
2018-09-30T22:18:27.393Z,58.30
2018-09-30T22:20:57.206Z,58.50
2018-09-30T22:23:26.220Z,59.10
2018-09-30T22:28:23.979Z,59.00
2018-09-30T22:33:21.021Z,59.30
2018-09-30T22:38:19.774Z,58.80
2018-09-30T22:40:48.366Z,59.10
2018-09-30T22:43:16.977Z,59.60
2018-09-30T22:45:46.184Z,59.10
2018-09-30T22:48:15.186Z,58.90
2018-09-30T22:55:41.417Z,60.70
2018-09-30T22:58:10.114Z,60.00
2018-09-30T23:00:38.380Z,60.40
2018-09-30T23:03:07.007Z,60.00
2018-09-30T23:05:35.320Z,60.60
2018-09-30T23:10:32.601Z,60.50
2018-09-30T23:13:01.139Z,60.50
2018-09-30T23:17:58.479Z,60.70
2018-09-30T23:20:27.489Z,60.60
2018-09-30T23:25:24.935Z,60.50
2018-09-30T23:27:53.472Z,60.50
2018-09-30T23:30:22.115Z,60.50
2018-09-30T23:32:50.469Z,61.20
2018-09-30T23:35:18.745Z,59.90
2018-09-30T23:37:47.368Z,60.50
2018-09-30T23:40:16.309Z,60.60
2018-09-30T23:42:44.536Z,61.10
2018-09-30T23:45:12.897Z,62.10
2018-09-30T23:47:41.235Z,62.40
2018-09-30T23:50:09.792Z,62.50
2018-09-30T23:52:38.409Z,62.50
2018-09-30T23:55:06.657Z,62.30
2018-09-30T23:57:35.254Z,61.60
